sensor_id;sensor_type;location;lat;lon;timestamp;temperature;humidity
30371;DHT22;17164;48.590;11.410;2022-09-17T00:00:19;11.50;99.90
30371;DHT22;17164;48.590;11.410;2022-09-17T00:02:50;11.50;99.90
30371;DHT22;17164;48.590;11.410;2022-09-17T00:05:23;11.50;99.90
30371;DHT22;17164;48.590;11.410;2022-09-17T00:07:50;11.40;99.90
30371;DHT22;17164;48.590;11.410;2022-09-17T00:10:17;11.40;99.90
30371;DHT22;17164;48.590;11.410;2022-09-17T00:12:42;11.30;99.90
30371;DHT22;17164;48.590;11.410;2022-09-17T00:15:08;11.30;99.90
30371;DHT22;17164;48.590;11.410;2022-09-17T00:17:34;11.30;99.90
30371;DHT22;17164;48.590;11.410;2022-09-17T00:20:00;11.30;99.90
30371;DHT22;17164;48.590;11.410;2022-09-17T00:22:26;11.20;99.90
30371;DHT22;17164;48.590;11.410;2022-09-17T00:24:51;11.20;99.90
30371;DHT22;17164;48.590;11.410;2022-09-17T00:27:17;11.10;99.90
30371;DHT22;17164;48.590;11.410;2022-09-17T00:29:42;11.10;99.90
30371;DHT22;17164;48.590;11.410;2022-09-17T00:32:08;11.00;99.90
30371;DHT22;17164;48.590;11.410;2022-09-17T00:34:34;11.00;99.90
30371;DHT22;17164;48.590;11.410;2022-09-17T00:36:59;11.10;99.90
30371;DHT22;17164;48.590;11.410;2022-09-17T00:39:25;11.10;99.90
30371;DHT22;17164;48.590;11.410;2022-09-17T00:41:51;11.10;99.90
30371;DHT22;17164;48.590;11.410;2022-09-17T00:47:00;11.10;99.90
30371;DHT22;17164;48.590;11.410;2022-09-17T00:49:28;11.10;99.90
30371;DHT22;17164;48.590;11.410;2022-09-17T00:52:03;11.10;99.90
30371;DHT22;17164;48.590;11.410;2022-09-17T00:54:31;11.10;99.90
30371;DHT22;17164;48.590;11.410;2022-09-17T00:56:57;11.10;99.90
30371;DHT22;17164;48.590;11.410;2022-09-17T00:59:24;11.10;99.90
30371;DHT22;17164;48.590;11.410;2022-09-17T01:01:50;11.10;99.90
30371;DHT22;17164;48.590;11.410;2022-09-17T01:04:18;11.10;99.90
30371;DHT22;17164;48.590;11.410;2022-09-17T01:07:05;11.10;99.90
30371;DHT22;17164;48.590;11.410;2022-09-17T01:09:53;11.10;99.90
30371;DHT22;17164;48.590;11.410;2022-09-17T01:16:00;11.10;99.90
30371;DHT22;17164;48.590;11.410;2022-09-17T01:18:33;11.20;99.90
30371;DHT22;17164;48.590;11.410;2022-09-17T01:24:34;11.10;99.90
30371;DHT22;17164;48.590;11.410;2022-09-17T01:27:27;11.10;99.90
30371;DHT22;17164;48.590;11.410;2022-09-17T01:32:33;11.00;99.90
30371;DHT22;17164;48.590;11.410;2022-09-17T01:35:32;11.00;99.90
30371;DHT22;17164;48.590;11.410;2022-09-17T01:38:23;11.00;99.90
30371;DHT22;17164;48.590;11.410;2022-09-17T01:41:01;10.90;99.90
30371;DHT22;17164;48.590;11.410;2022-09-17T01:43:52;10.90;99.90
30371;DHT22;17164;48.590;11.410;2022-09-17T01:46:35;10.90;99.90
30371;DHT22;17164;48.590;11.410;2022-09-17T01:49:05;10.90;99.90
30371;DHT22;17164;48.590;11.410;2022-09-17T01:51:37;10.90;99.90
30371;DHT22;17164;48.590;11.410;2022-09-17T01:54:14;10.80;99.90
30371;DHT22;17164;48.590;11.410;2022-09-17T01:56:52;10.90;99.90
30371;DHT22;17164;48.590;11.410;2022-09-17T01:59:23;10.90;99.90
30371;DHT22;17164;48.590;11.410;2022-09-17T02:01:55;10.80;99.90
30371;DHT22;17164;48.590;11.410;2022-09-17T02:04:26;10.80;99.90
30371;DHT22;17164;48.590;11.410;2022-09-17T02:07:02;10.80;99.90
30371;DHT22;17164;48.590;11.410;2022-09-17T02:09:38;10.80;99.90
30371;DHT22;17164;48.590;11.410;2022-09-17T02:12:11;10.70;99.90
30371;DHT22;17164;48.590;11.410;2022-09-17T02:14:47;10.70;99.90
30371;DHT22;17164;48.590;11.410;2022-09-17T02:17:21;10.60;99.90
30371;DHT22;17164;48.590;11.410;2022-09-17T02:19:49;10.60;99.90
30371;DHT22;17164;48.590;11.410;2022-09-17T02:22:28;10.60;99.90
30371;DHT22;17164;48.590;11.410;2022-09-17T02:28:03;10.50;99.90
30371;DHT22;17164;48.590;11.410;2022-09-17T02:30:30;10.50;99.90
30371;DHT22;17164;48.590;11.410;2022-09-17T02:32:56;10.50;99.90
30371;DHT22;17164;48.590;11.410;2022-09-17T02:35:22;10.50;99.90
30371;DHT22;17164;48.590;11.410;2022-09-17T02:37:48;10.50;99.90
30371;DHT22;17164;48.590;11.410;2022-09-17T02:40:15;10.50;99.90
30371;DHT22;17164;48.590;11.410;2022-09-17T02:51:52;10.60;99.90
30371;DHT22;17164;48.590;11.410;2022-09-17T02:57:19;10.60;99.90
30371;DHT22;17164;48.590;11.410;2022-09-17T03:02:21;10.70;99.90
30371;DHT22;17164;48.590;11.410;2022-09-17T03:04:48;10.60;99.90
30371;DHT22;17164;48.590;11.410;2022-09-17T03:07:18;10.70;99.90
30371;DHT22;17164;48.590;11.410;2022-09-17T03:09:44;10.70;99.90
30371;DHT22;17164;48.590;11.410;2022-09-17T03:12:10;10.70;99.90
30371;DHT22;17164;48.590;11.410;2022-09-17T03:14:36;10.70;99.90
30371;DHT22;17164;48.590;11.410;2022-09-17T03:17:02;10.70;99.90
30371;DHT22;17164;48.590;11.410;2022-09-17T03:19:28;10.70;99.90
30371;DHT22;17164;48.590;11.410;2022-09-17T03:21:54;10.60;99.90
30371;DHT22;17164;48.590;11.410;2022-09-17T03:24:19;10.60;99.90
30371;DHT22;17164;48.590;11.410;2022-09-17T03:26:45;10.60;99.90
30371;DHT22;17164;48.590;11.410;2022-09-17T03:29:12;10.60;99.90
30371;DHT22;17164;48.590;11.410;2022-09-17T03:31:38;10.60;99.90
30371;DHT22;17164;48.590;11.410;2022-09-17T03:34:03;10.60;99.90
30371;DHT22;17164;48.590;11.410;2022-09-17T03:36:29;10.60;99.90
30371;DHT22;17164;48.590;11.410;2022-09-17T03:38:56;10.60;99.90
30371;DHT22;17164;48.590;11.410;2022-09-17T03:41:22;10.60;99.90
30371;DHT22;17164;48.590;11.410;2022-09-17T03:43:48;10.50;99.90
30371;DHT22;17164;48.590;11.410;2022-09-17T03:46:13;10.50;99.90
30371;DHT22;17164;48.590;11.410;2022-09-17T03:48:39;10.50;99.90
30371;DHT22;17164;48.590;11.410;2022-09-17T03:51:05;10.50;99.90
30371;DHT22;17164;48.590;11.410;2022-09-17T03:53:31;10.50;99.90
30371;DHT22;17164;48.590;11.410;2022-09-17T03:56:01;10.50;99.90
30371;DHT22;17164;48.590;11.410;2022-09-17T03:58:29;10.50;99.90
30371;DHT22;17164;48.590;11.410;2022-09-17T04:00:54;10.50;99.90
30371;DHT22;17164;48.590;11.410;2022-09-17T04:03:23;10.50;99.90
30371;DHT22;17164;48.590;11.410;2022-09-17T04:05:49;10.50;99.90
30371;DHT22;17164;48.590;11.410;2022-09-17T04:08:15;10.50;99.90
30371;DHT22;17164;48.590;11.410;2022-09-17T04:10:40;10.50;99.90
30371;DHT22;17164;48.590;11.410;2022-09-17T04:13:08;10.50;99.90
30371;DHT22;17164;48.590;11.410;2022-09-17T04:15:33;10.60;99.90
30371;DHT22;17164;48.590;11.410;2022-09-17T04:17:59;10.60;99.90
30371;DHT22;17164;48.590;11.410;2022-09-17T04:20:25;10.60;99.90
30371;DHT22;17164;48.590;11.410;2022-09-17T04:22:51;10.60;99.90
30371;DHT22;17164;48.590;11.410;2022-09-17T04:25:17;10.60;99.90
30371;DHT22;17164;48.590;11.410;2022-09-17T04:27:43;10.60;99.90
30371;DHT22;17164;48.590;11.410;2022-09-17T04:30:10;10.60;99.90
30371;DHT22;17164;48.590;11.410;2022-09-17T04:32:36;10.60;99.90
30371;DHT22;17164;48.590;11.410;2022-09-17T04:35:01;10.60;99.90
30371;DHT22;17164;48.590;11.410;2022-09-17T04:37:27;10.60;99.90
30371;DHT22;17164;48.590;11.410;2022-09-17T04:39:53;10.60;99.90
30371;DHT22;17164;48.590;11.410;2022-09-17T04:42:18;10.60;99.90
30371;DHT22;17164;48.590;11.410;2022-09-17T04:44:44;10.60;99.90
30371;DHT22;17164;48.590;11.410;2022-09-17T04:47:09;10.50;99.90
30371;DHT22;17164;48.590;11.410;2022-09-17T04:49:35;10.50;99.90
30371;DHT22;17164;48.590;11.410;2022-09-17T04:52:01;10.60;99.90
30371;DHT22;17164;48.590;11.410;2022-09-17T04:54:26;10.50;99.90
30371;DHT22;17164;48.590;11.410;2022-09-17T04:56:52;10.50;99.90
30371;DHT22;17164;48.590;11.410;2022-09-17T04:59:18;10.50;99.90
30371;DHT22;17164;48.590;11.410;2022-09-17T05:01:43;10.50;99.90
30371;DHT22;17164;48.590;11.410;2022-09-17T05:04:09;10.50;99.90
30371;DHT22;17164;48.590;11.410;2022-09-17T05:06:35;10.50;99.90
30371;DHT22;17164;48.590;11.410;2022-09-17T05:09:00;10.50;99.90
30371;DHT22;17164;48.590;11.410;2022-09-17T05:11:29;10.50;99.90
30371;DHT22;17164;48.590;11.410;2022-09-17T05:13:55;10.50;99.90
30371;DHT22;17164;48.590;11.410;2022-09-17T05:16:20;10.50;99.90
30371;DHT22;17164;48.590;11.410;2022-09-17T05:18:46;10.50;99.90
30371;DHT22;17164;48.590;11.410;2022-09-17T05:21:14;10.50;99.90
30371;DHT22;17164;48.590;11.410;2022-09-17T05:23:39;10.40;99.90
30371;DHT22;17164;48.590;11.410;2022-09-17T05:26:05;10.40;99.90
30371;DHT22;17164;48.590;11.410;2022-09-17T05:28:31;10.30;99.90
30371;DHT22;17164;48.590;11.410;2022-09-17T05:31:00;10.30;99.90
30371;DHT22;17164;48.590;11.410;2022-09-17T05:33:26;10.30;99.90
30371;DHT22;17164;48.590;11.410;2022-09-17T05:35:52;10.40;99.90
30371;DHT22;17164;48.590;11.410;2022-09-17T05:38:17;10.40;99.90
30371;DHT22;17164;48.590;11.410;2022-09-17T05:40:44;10.40;99.90
30371;DHT22;17164;48.590;11.410;2022-09-17T05:43:10;10.50;99.90
30371;DHT22;17164;48.590;11.410;2022-09-17T05:45:36;10.40;99.90
30371;DHT22;17164;48.590;11.410;2022-09-17T05:48:04;10.50;99.90
30371;DHT22;17164;48.590;11.410;2022-09-17T05:50:30;10.50;99.90
30371;DHT22;17164;48.590;11.410;2022-09-17T05:52:56;10.50;99.90
30371;DHT22;17164;48.590;11.410;2022-09-17T05:55:23;10.40;99.90
30371;DHT22;17164;48.590;11.410;2022-09-17T05:57:49;10.40;99.90
30371;DHT22;17164;48.590;11.410;2022-09-17T06:00:15;10.40;99.90
30371;DHT22;17164;48.590;11.410;2022-09-17T06:02:41;10.50;99.90
30371;DHT22;17164;48.590;11.410;2022-09-17T06:05:07;10.50;99.90
30371;DHT22;17164;48.590;11.410;2022-09-17T06:07:36;10.50;99.90
30371;DHT22;17164;48.590;11.410;2022-09-17T06:10:04;10.50;99.90
30371;DHT22;17164;48.590;11.410;2022-09-17T06:12:30;10.50;99.90
30371;DHT22;17164;48.590;11.410;2022-09-17T06:14:56;10.50;99.90
30371;DHT22;17164;48.590;11.410;2022-09-17T06:17:21;10.50;99.90
30371;DHT22;17164;48.590;11.410;2022-09-17T06:19:47;10.60;99.90
30371;DHT22;17164;48.590;11.410;2022-09-17T06:22:12;10.60;99.90
30371;DHT22;17164;48.590;11.410;2022-09-17T06:24:38;10.60;99.90
30371;DHT22;17164;48.590;11.410;2022-09-17T06:27:04;10.60;99.90
30371;DHT22;17164;48.590;11.410;2022-09-17T06:29:29;10.60;99.90
30371;DHT22;17164;48.590;11.410;2022-09-17T06:31:55;10.70;99.90
30371;DHT22;17164;48.590;11.410;2022-09-17T06:34:21;10.70;99.90
30371;DHT22;17164;48.590;11.410;2022-09-17T06:36:48;10.70;99.90
30371;DHT22;17164;48.590;11.410;2022-09-17T06:39:13;10.80;99.90
30371;DHT22;17164;48.590;11.410;2022-09-17T06:41:40;10.80;99.90
30371;DHT22;17164;48.590;11.410;2022-09-17T06:44:07;10.80;99.90
30371;DHT22;17164;48.590;11.410;2022-09-17T06:46:33;10.80;99.90
30371;DHT22;17164;48.590;11.410;2022-09-17T06:48:58;10.90;99.90
30371;DHT22;17164;48.590;11.410;2022-09-17T06:51:24;10.90;99.90
30371;DHT22;17164;48.590;11.410;2022-09-17T06:53:50;11.00;99.90
30371;DHT22;17164;48.590;11.410;2022-09-17T06:56:15;11.00;99.90
30371;DHT22;17164;48.590;11.410;2022-09-17T06:58:42;11.00;99.90
30371;DHT22;17164;48.590;11.410;2022-09-17T07:01:09;11.00;99.90
30371;DHT22;17164;48.590;11.410;2022-09-17T07:03:35;11.00;99.90
30371;DHT22;17164;48.590;11.410;2022-09-17T07:06:02;11.00;99.90
30371;DHT22;17164;48.590;11.410;2022-09-17T07:08:28;11.00;99.90
30371;DHT22;17164;48.590;11.410;2022-09-17T07:10:56;11.00;99.90
30371;DHT22;17164;48.590;11.410;2022-09-17T07:13:22;11.00;99.90
30371;DHT22;17164;48.590;11.410;2022-09-17T07:15:56;11.00;99.90
30371;DHT22;17164;48.590;11.410;2022-09-17T07:18:22;11.00;99.90
30371;DHT22;17164;48.590;11.410;2022-09-17T07:20:56;11.10;99.90
30371;DHT22;17164;48.590;11.410;2022-09-17T07:23:23;11.10;99.90
30371;DHT22;17164;48.590;11.410;2022-09-17T07:25:55;11.20;99.90
30371;DHT22;17164;48.590;11.410;2022-09-17T07:28:21;11.20;99.90
30371;DHT22;17164;48.590;11.410;2022-09-17T07:30:48;11.30;99.90
30371;DHT22;17164;48.590;11.410;2022-09-17T07:33:16;11.30;99.90
30371;DHT22;17164;48.590;11.410;2022-09-17T07:35:42;11.30;99.90
30371;DHT22;17164;48.590;11.410;2022-09-17T07:38:08;11.30;99.90
30371;DHT22;17164;48.590;11.410;2022-09-17T07:40:33;11.20;99.90
30371;DHT22;17164;48.590;11.410;2022-09-17T07:42:59;11.10;99.90
30371;DHT22;17164;48.590;11.410;2022-09-17T07:45:25;11.10;99.90
30371;DHT22;17164;48.590;11.410;2022-09-17T07:47:50;11.10;99.90
30371;DHT22;17164;48.590;11.410;2022-09-17T07:50:16;11.10;99.90
30371;DHT22;17164;48.590;11.410;2022-09-17T07:52:48;11.20;99.90
30371;DHT22;17164;48.590;11.410;2022-09-17T07:55:14;11.20;99.90
30371;DHT22;17164;48.590;11.410;2022-09-17T07:57:40;11.40;99.90
30371;DHT22;17164;48.590;11.410;2022-09-17T08:00:06;11.40;99.90
30371;DHT22;17164;48.590;11.410;2022-09-17T08:02:32;11.40;99.90
30371;DHT22;17164;48.590;11.410;2022-09-17T08:04:58;11.50;99.90
30371;DHT22;17164;48.590;11.410;2022-09-17T08:07:23;11.50;99.90
30371;DHT22;17164;48.590;11.410;2022-09-17T08:09:49;11.40;99.90
30371;DHT22;17164;48.590;11.410;2022-09-17T08:12:15;11.30;99.90
30371;DHT22;17164;48.590;11.410;2022-09-17T08:14:42;11.20;99.90
30371;DHT22;17164;48.590;11.410;2022-09-17T08:17:08;11.10;99.90
30371;DHT22;17164;48.590;11.410;2022-09-17T08:19:34;11.00;99.90
30371;DHT22;17164;48.590;11.410;2022-09-17T08:21:59;10.90;99.90
30371;DHT22;17164;48.590;11.410;2022-09-17T08:24:25;10.80;99.90
30371;DHT22;17164;48.590;11.410;2022-09-17T08:26:51;10.80;99.90
30371;DHT22;17164;48.590;11.410;2022-09-17T08:29:16;10.80;99.90
30371;DHT22;17164;48.590;11.410;2022-09-17T08:31:42;10.80;99.90
30371;DHT22;17164;48.590;11.410;2022-09-17T08:34:08;10.70;99.90
30371;DHT22;17164;48.590;11.410;2022-09-17T08:36:34;10.60;99.90
30371;DHT22;17164;48.590;11.410;2022-09-17T08:39:00;10.60;99.90
30371;DHT22;17164;48.590;11.410;2022-09-17T08:44:11;10.40;99.90
30371;DHT22;17164;48.590;11.410;2022-09-17T08:46:53;10.40;99.90
30371;DHT22;17164;48.590;11.410;2022-09-17T08:49:31;10.30;99.90
30371;DHT22;17164;48.590;11.410;2022-09-17T09:05:29;10.30;99.90
30371;DHT22;17164;48.590;11.410;2022-09-17T09:08:03;10.40;99.90
30371;DHT22;17164;48.590;11.410;2022-09-17T09:10:39;10.50;99.90
30371;DHT22;17164;48.590;11.410;2022-09-17T09:13:10;10.50;99.90
30371;DHT22;17164;48.590;11.410;2022-09-17T09:15:44;10.50;99.90
30371;DHT22;17164;48.590;11.410;2022-09-17T09:18:20;10.50;99.90
30371;DHT22;17164;48.590;11.410;2022-09-17T09:20:58;10.50;99.90
30371;DHT22;17164;48.590;11.410;2022-09-17T09:23:53;10.60;99.90
30371;DHT22;17164;48.590;11.410;2022-09-17T09:26:43;10.60;99.90
30371;DHT22;17164;48.590;11.410;2022-09-17T09:34:40;11.00;99.90
30371;DHT22;17164;48.590;11.410;2022-09-17T09:37:16;11.00;99.90
30371;DHT22;17164;48.590;11.410;2022-09-17T09:39:43;11.00;99.90
30371;DHT22;17164;48.590;11.410;2022-09-17T09:42:28;11.10;99.90
30371;DHT22;17164;48.590;11.410;2022-09-17T09:45:02;11.10;99.90
30371;DHT22;17164;48.590;11.410;2022-09-17T09:53:16;11.10;99.90
30371;DHT22;17164;48.590;11.410;2022-09-17T09:58:37;11.00;99.90
30371;DHT22;17164;48.590;11.410;2022-09-17T10:01:13;11.00;99.90
30371;DHT22;17164;48.590;11.410;2022-09-17T10:03:40;11.00;99.90
30371;DHT22;17164;48.590;11.410;2022-09-17T10:06:10;10.90;99.90
30371;DHT22;17164;48.590;11.410;2022-09-17T10:08:42;11.00;99.90
30371;DHT22;17164;48.590;11.410;2022-09-17T10:11:30;10.90;99.90
30371;DHT22;17164;48.590;11.410;2022-09-17T10:14:29;10.90;99.90
30371;DHT22;17164;48.590;11.410;2022-09-17T10:17:24;10.80;99.90
30371;DHT22;17164;48.590;11.410;2022-09-17T10:22:36;11.00;99.90
30371;DHT22;17164;48.590;11.410;2022-09-17T10:25:05;11.10;99.90
30371;DHT22;17164;48.590;11.410;2022-09-17T10:27:32;11.20;99.90
30371;DHT22;17164;48.590;11.410;2022-09-17T10:30:25;11.30;99.90
30371;DHT22;17164;48.590;11.410;2022-09-17T10:35:36;11.50;99.90
30371;DHT22;17164;48.590;11.410;2022-09-17T10:38:01;11.70;99.90
30371;DHT22;17164;48.590;11.410;2022-09-17T10:40:29;11.80;99.90
30371;DHT22;17164;48.590;11.410;2022-09-17T10:45:43;11.90;99.90
30371;DHT22;17164;48.590;11.410;2022-09-17T10:48:17;11.80;99.90
30371;DHT22;17164;48.590;11.410;2022-09-17T10:50:51;11.70;99.90
30371;DHT22;17164;48.590;11.410;2022-09-17T10:53:19;11.70;99.90
30371;DHT22;17164;48.590;11.410;2022-09-17T11:06:04;11.60;99.90
30371;DHT22;17164;48.590;11.410;2022-09-17T11:11:13;11.60;99.90
30371;DHT22;17164;48.590;11.410;2022-09-17T11:17:11;11.60;99.90
30371;DHT22;17164;48.590;11.410;2022-09-17T11:25:07;11.60;99.90
30371;DHT22;17164;48.590;11.410;2022-09-17T11:28:16;11.60;99.90
30371;DHT22;17164;48.590;11.410;2022-09-17T11:33:32;11.70;99.90
30371;DHT22;17164;48.590;11.410;2022-09-17T11:36:17;11.80;99.90
30371;DHT22;17164;48.590;11.410;2022-09-17T11:38:49;11.90;99.90
30371;DHT22;17164;48.590;11.410;2022-09-17T11:41:19;12.10;99.90
30371;DHT22;17164;48.590;11.410;2022-09-17T11:44:19;12.10;99.90
30371;DHT22;17164;48.590;11.410;2022-09-17T11:47:09;12.20;99.90
30371;DHT22;17164;48.590;11.410;2022-09-17T11:49:42;12.30;99.90
30371;DHT22;17164;48.590;11.410;2022-09-17T11:55:24;12.40;99.90
30371;DHT22;17164;48.590;11.410;2022-09-17T11:57:58;12.50;99.90
30371;DHT22;17164;48.590;11.410;2022-09-17T12:00:27;12.60;99.90
30371;DHT22;17164;48.590;11.410;2022-09-17T12:03:38;12.70;99.90
30371;DHT22;17164;48.590;11.410;2022-09-17T12:05:52;13.00;99.90
30371;DHT22;17164;48.590;11.410;2022-09-17T12:08:25;13.20;99.90
30371;DHT22;17164;48.590;11.410;2022-09-17T12:11:11;13.30;99.90
30371;DHT22;17164;48.590;11.410;2022-09-17T12:13:47;13.40;99.90
30371;DHT22;17164;48.590;11.410;2022-09-17T12:16:34;13.30;99.90
30371;DHT22;17164;48.590;11.410;2022-09-17T12:19:19;13.30;99.90
30371;DHT22;17164;48.590;11.410;2022-09-17T12:22:10;13.40;99.90
30371;DHT22;17164;48.590;11.410;2022-09-17T12:24:39;13.40;99.90
30371;DHT22;17164;48.590;11.410;2022-09-17T12:35:58;13.10;99.90
30371;DHT22;17164;48.590;11.410;2022-09-17T12:41:44;13.40;99.90
30371;DHT22;17164;48.590;11.410;2022-09-17T12:53:35;14.40;99.90
30371;DHT22;17164;48.590;11.410;2022-09-17T12:56:16;14.60;99.90
30371;DHT22;17164;48.590;11.410;2022-09-17T12:59:09;14.80;99.90
30371;DHT22;17164;48.590;11.410;2022-09-17T13:01:56;14.90;99.90
30371;DHT22;17164;48.590;11.410;2022-09-17T13:10:02;15.00;99.90
30371;DHT22;17164;48.590;11.410;2022-09-17T13:18:19;14.80;99.90
30371;DHT22;17164;48.590;11.410;2022-09-17T13:26:00;14.00;99.90
30371;DHT22;17164;48.590;11.410;2022-09-17T13:28:43;13.90;99.90
30371;DHT22;17164;48.590;11.410;2022-09-17T13:31:09;13.80;99.90
30371;DHT22;17164;48.590;11.410;2022-09-17T13:33:53;13.80;99.90
30371;DHT22;17164;48.590;11.410;2022-09-17T13:36:41;13.70;99.90
30371;DHT22;17164;48.590;11.410;2022-09-17T13:39:11;13.70;99.90
30371;DHT22;17164;48.590;11.410;2022-09-17T13:42:25;13.70;99.90
30371;DHT22;17164;48.590;11.410;2022-09-17T13:45:07;13.60;99.90
30371;DHT22;17164;48.590;11.410;2022-09-17T13:52:51;13.70;99.90
30371;DHT22;17164;48.590;11.410;2022-09-17T13:55:37;13.70;99.90
30371;DHT22;17164;48.590;11.410;2022-09-17T13:58:09;13.70;99.90
30371;DHT22;17164;48.590;11.410;2022-09-17T14:01:02;13.70;99.90
30371;DHT22;17164;48.590;11.410;2022-09-17T14:05:56;13.70;99.90
30371;DHT22;17164;48.590;11.410;2022-09-17T14:13:50;13.60;99.90
30371;DHT22;17164;48.590;11.410;2022-09-17T14:40:45;11.40;99.90
30371;DHT22;17164;48.590;11.410;2022-09-17T14:43:22;11.30;99.90
30371;DHT22;17164;48.590;11.410;2022-09-17T14:45:52;11.30;99.90
30371;DHT22;17164;48.590;11.410;2022-09-17T14:48:28;11.30;99.90
30371;DHT22;17164;48.590;11.410;2022-09-17T14:53:43;11.40;99.90
30371;DHT22;17164;48.590;11.410;2022-09-17T14:56:11;11.40;99.90
30371;DHT22;17164;48.590;11.410;2022-09-17T14:58:42;11.50;99.90
30371;DHT22;17164;48.590;11.410;2022-09-17T15:03:49;11.60;99.90
30371;DHT22;17164;48.590;11.410;2022-09-17T15:06:21;11.60;99.90
30371;DHT22;17164;48.590;11.410;2022-09-17T15:08:47;11.60;99.90
30371;DHT22;17164;48.590;11.410;2022-09-17T15:11:13;11.60;99.90
30371;DHT22;17164;48.590;11.410;2022-09-17T15:16:25;11.60;99.90
30371;DHT22;17164;48.590;11.410;2022-09-17T15:18:56;11.60;99.90
30371;DHT22;17164;48.590;11.410;2022-09-17T15:21:29;11.70;99.90
30371;DHT22;17164;48.590;11.410;2022-09-17T15:24:02;11.70;99.90
30371;DHT22;17164;48.590;11.410;2022-09-17T15:26:33;11.70;99.90
30371;DHT22;17164;48.590;11.410;2022-09-17T15:29:02;11.80;99.90
30371;DHT22;17164;48.590;11.410;2022-09-17T15:31:29;11.90;99.90
30371;DHT22;17164;48.590;11.410;2022-09-17T15:33:58;11.90;99.90
30371;DHT22;17164;48.590;11.410;2022-09-17T15:36:26;12.00;99.90
30371;DHT22;17164;48.590;11.410;2022-09-17T15:38:52;12.00;99.90
30371;DHT22;17164;48.590;11.410;2022-09-17T15:41:23;11.90;99.90
30371;DHT22;17164;48.590;11.410;2022-09-17T15:43:49;12.00;99.90
30371;DHT22;17164;48.590;11.410;2022-09-17T15:46:30;11.90;99.90
30371;DHT22;17164;48.590;11.410;2022-09-17T15:49:03;12.00;99.90
30371;DHT22;17164;48.590;11.410;2022-09-17T15:51:48;12.10;99.90
30371;DHT22;17164;48.590;11.410;2022-09-17T15:54:30;12.40;99.90
30371;DHT22;17164;48.590;11.410;2022-09-17T15:56:59;12.70;99.90
30371;DHT22;17164;48.590;11.410;2022-09-17T15:59:30;12.90;99.90
30371;DHT22;17164;48.590;11.410;2022-09-17T16:02:00;13.00;99.90
30371;DHT22;17164;48.590;11.410;2022-09-17T16:04:30;13.20;99.90
30371;DHT22;17164;48.590;11.410;2022-09-17T16:12:23;13.30;99.90
30371;DHT22;17164;48.590;11.410;2022-09-17T16:14:51;13.30;99.90
30371;DHT22;17164;48.590;11.410;2022-09-17T16:17:31;13.50;99.90
30371;DHT22;17164;48.590;11.410;2022-09-17T16:19:59;13.80;99.90
30371;DHT22;17164;48.590;11.410;2022-09-17T16:22:25;14.20;99.90
30371;DHT22;17164;48.590;11.410;2022-09-17T16:24:53;14.30;99.90
30371;DHT22;17164;48.590;11.410;2022-09-17T16:27:23;14.20;99.90
30371;DHT22;17164;48.590;11.410;2022-09-17T16:29:50;14.10;99.90
30371;DHT22;17164;48.590;11.410;2022-09-17T16:32:17;13.90;99.90
30371;DHT22;17164;48.590;11.410;2022-09-17T16:34:42;13.60;99.90
30371;DHT22;17164;48.590;11.410;2022-09-17T16:37:09;13.30;99.90
30371;DHT22;17164;48.590;11.410;2022-09-17T16:39:35;13.00;99.90
30371;DHT22;17164;48.590;11.410;2022-09-17T16:42:01;12.70;99.90
30371;DHT22;17164;48.590;11.410;2022-09-17T16:44:26;12.50;99.90
30371;DHT22;17164;48.590;11.410;2022-09-17T16:46:52;12.40;99.90
30371;DHT22;17164;48.590;11.410;2022-09-17T16:49:18;12.20;99.90
30371;DHT22;17164;48.590;11.410;2022-09-17T16:51:43;12.10;99.90
30371;DHT22;17164;48.590;11.410;2022-09-17T16:54:09;12.00;99.90
30371;DHT22;17164;48.590;11.410;2022-09-17T16:56:34;11.90;99.90
30371;DHT22;17164;48.590;11.410;2022-09-17T16:59:00;11.90;99.90
30371;DHT22;17164;48.590;11.410;2022-09-17T17:01:26;11.80;99.90
30371;DHT22;17164;48.590;11.410;2022-09-17T17:03:52;11.80;99.90
30371;DHT22;17164;48.590;11.410;2022-09-17T17:06:19;11.70;99.90
30371;DHT22;17164;48.590;11.410;2022-09-17T17:08:46;11.60;99.90
30371;DHT22;17164;48.590;11.410;2022-09-17T17:11:12;11.50;99.90
30371;DHT22;17164;48.590;11.410;2022-09-17T17:13:37;11.40;99.90
30371;DHT22;17164;48.590;11.410;2022-09-17T17:16:07;11.40;99.90
30371;DHT22;17164;48.590;11.410;2022-09-17T17:18:33;11.30;99.90
30371;DHT22;17164;48.590;11.410;2022-09-17T17:21:09;11.30;99.90
30371;DHT22;17164;48.590;11.410;2022-09-17T17:23:35;11.20;99.90
30371;DHT22;17164;48.590;11.410;2022-09-17T17:26:01;11.20;99.90
30371;DHT22;17164;48.590;11.410;2022-09-17T17:28:31;11.10;99.90
30371;DHT22;17164;48.590;11.410;2022-09-17T17:30:57;11.10;99.90
30371;DHT22;17164;48.590;11.410;2022-09-17T17:33:22;11.10;99.90
30371;DHT22;17164;48.590;11.410;2022-09-17T17:35:48;11.00;99.90
30371;DHT22;17164;48.590;11.410;2022-09-17T17:38:16;11.00;99.90
30371;DHT22;17164;48.590;11.410;2022-09-17T17:40:42;11.00;99.90
30371;DHT22;17164;48.590;11.410;2022-09-17T17:43:08;10.90;99.90
30371;DHT22;17164;48.590;11.410;2022-09-17T17:45:34;10.90;99.90
30371;DHT22;17164;48.590;11.410;2022-09-17T17:48:00;10.90;99.90
30371;DHT22;17164;48.590;11.410;2022-09-17T17:50:25;10.90;99.90
30371;DHT22;17164;48.590;11.410;2022-09-17T17:52:53;10.90;99.90
30371;DHT22;17164;48.590;11.410;2022-09-17T17:55:19;10.90;99.90
30371;DHT22;17164;48.590;11.410;2022-09-17T17:57:45;10.90;99.90
30371;DHT22;17164;48.590;11.410;2022-09-17T18:00:11;10.90;99.90
30371;DHT22;17164;48.590;11.410;2022-09-17T18:02:37;10.90;99.90
30371;DHT22;17164;48.590;11.410;2022-09-17T18:05:03;10.90;99.90
30371;DHT22;17164;48.590;11.410;2022-09-17T18:07:29;10.90;99.90
30371;DHT22;17164;48.590;11.410;2022-09-17T18:09:54;10.90;99.90
30371;DHT22;17164;48.590;11.410;2022-09-17T18:12:20;10.90;99.90
30371;DHT22;17164;48.590;11.410;2022-09-17T18:14:45;10.90;99.90
30371;DHT22;17164;48.590;11.410;2022-09-17T18:17:11;10.90;99.90
30371;DHT22;17164;48.590;11.410;2022-09-17T18:19:36;10.90;99.90
30371;DHT22;17164;48.590;11.410;2022-09-17T18:22:02;10.90;99.90
30371;DHT22;17164;48.590;11.410;2022-09-17T18:24:28;10.90;99.90
30371;DHT22;17164;48.590;11.410;2022-09-17T18:26:54;10.90;99.90
30371;DHT22;17164;48.590;11.410;2022-09-17T18:29:19;10.80;99.90
30371;DHT22;17164;48.590;11.410;2022-09-17T18:31:45;10.80;99.90
30371;DHT22;17164;48.590;11.410;2022-09-17T18:34:15;10.80;99.90
30371;DHT22;17164;48.590;11.410;2022-09-17T18:36:42;10.80;99.90